sensor_id;sensor_type;location;lat;lon;timestamp;P1;durP1;ratioP1;P2;durP2;ratioP2
10056;SDS011;5068;51.286;7.518;2023-03-14T00:01:22;1.80;;;0.43;;
10056;SDS011;5068;51.286;7.518;2023-03-14T00:02:56;1.95;;;0.60;;
10056;SDS011;5068;51.286;7.518;2023-03-14T00:04:30;2.67;;;0.45;;
10056;SDS011;5068;51.286;7.518;2023-03-14T00:06:02;2.03;;;0.60;;
10056;SDS011;5068;51.286;7.518;2023-03-14T00:07:37;3.47;;;0.77;;
10056;SDS011;5068;51.286;7.518;2023-03-14T00:09:12;4.55;;;0.55;;
10056;SDS011;5068;51.286;7.518;2023-03-14T00:10:47;2.92;;;0.47;;
10056;SDS011;5068;51.286;7.518;2023-03-14T00:12:20;3.30;;;0.60;;
10056;SDS011;5068;51.286;7.518;2023-03-14T00:13:53;2.88;;;0.73;;
10056;SDS011;5068;51.286;7.518;2023-03-14T00:15:26;1.58;;;0.40;;
10056;SDS011;5068;51.286;7.518;2023-03-14T00:16:59;1.90;;;0.55;;
10056;SDS011;5068;51.286;7.518;2023-03-14T00:18:33;3.45;;;0.63;;
10056;SDS011;5068;51.286;7.518;2023-03-14T00:20:06;4.28;;;0.95;;
10056;SDS011;5068;51.286;7.518;2023-03-14T00:21:42;2.92;;;0.47;;
10056;SDS011;5068;51.286;7.518;2023-03-14T00:23:15;2.38;;;0.57;;
10056;SDS011;5068;51.286;7.518;2023-03-14T00:24:48;0.95;;;0.40;;
10056;SDS011;5068;51.286;7.518;2023-03-14T00:26:24;1.60;;;0.50;;
10056;SDS011;5068;51.286;7.518;2023-03-14T00:27:58;2.15;;;0.70;;
10056;SDS011;5068;51.286;7.518;2023-03-14T00:29:31;1.48;;;0.52;;
10056;SDS011;5068;51.286;7.518;2023-03-14T00:31:05;1.77;;;0.55;;
10056;SDS011;5068;51.286;7.518;2023-03-14T00:32:41;2.40;;;0.50;;
10056;SDS011;5068;51.286;7.518;2023-03-14T00:34:14;3.50;;;0.70;;
10056;SDS011;5068;51.286;7.518;2023-03-14T00:35:51;1.33;;;0.57;;
10056;SDS011;5068;51.286;7.518;2023-03-14T00:37:26;1.85;;;0.55;;
10056;SDS011;5068;51.286;7.518;2023-03-14T00:39:00;4.40;;;0.60;;
10056;SDS011;5068;51.286;7.518;2023-03-14T00:40:38;3.03;;;0.90;;
10056;SDS011;5068;51.286;7.518;2023-03-14T00:42:13;1.45;;;0.38;;
10056;SDS011;5068;51.286;7.518;2023-03-14T00:43:46;1.98;;;0.38;;
10056;SDS011;5068;51.286;7.518;2023-03-14T00:45:19;2.83;;;0.68;;
10056;SDS011;5068;51.286;7.518;2023-03-14T00:46:52;1.67;;;0.55;;
10056;SDS011;5068;51.286;7.518;2023-03-14T00:48:26;3.58;;;0.57;;
10056;SDS011;5068;51.286;7.518;2023-03-14T00:50:00;2.17;;;0.57;;
10056;SDS011;5068;51.286;7.518;2023-03-14T00:51:33;2.08;;;0.43;;
10056;SDS011;5068;51.286;7.518;2023-03-14T00:53:06;2.15;;;0.50;;
10056;SDS011;5068;51.286;7.518;2023-03-14T00:54:40;3.97;;;0.98;;
10056;SDS011;5068;51.286;7.518;2023-03-14T00:56:13;3.33;;;0.70;;
10056;SDS011;5068;51.286;7.518;2023-03-14T00:57:48;2.60;;;0.43;;
10056;SDS011;5068;51.286;7.518;2023-03-14T00:59:21;2.45;;;0.35;;
10056;SDS011;5068;51.286;7.518;2023-03-14T01:00:55;1.65;;;0.63;;
10056;SDS011;5068;51.286;7.518;2023-03-14T01:02:29;3.15;;;0.63;;
10056;SDS011;5068;51.286;7.518;2023-03-14T01:04:01;4.68;;;0.70;;
10056;SDS011;5068;51.286;7.518;2023-03-14T01:05:36;2.45;;;0.68;;
10056;SDS011;5068;51.286;7.518;2023-03-14T01:07:10;3.40;;;0.65;;
10056;SDS011;5068;51.286;7.518;2023-03-14T01:08:43;4.00;;;1.23;;
10056;SDS011;5068;51.286;7.518;2023-03-14T01:10:17;2.03;;;0.43;;
10056;SDS011;5068;51.286;7.518;2023-03-14T01:11:51;2.90;;;0.43;;
10056;SDS011;5068;51.286;7.518;2023-03-14T01:13:25;2.53;;;0.50;;
10056;SDS011;5068;51.286;7.518;2023-03-14T01:14:58;4.10;;;0.70;;
10056;SDS011;5068;51.286;7.518;2023-03-14T01:16:32;2.65;;;0.75;;
10056;SDS011;5068;51.286;7.518;2023-03-14T01:18:07;2.35;;;0.60;;
10056;SDS011;5068;51.286;7.518;2023-03-14T01:19:40;3.47;;;1.27;;
10056;SDS011;5068;51.286;7.518;2023-03-14T01:21:15;1.35;;;0.40;;
10056;SDS011;5068;51.286;7.518;2023-03-14T01:22:51;2.47;;;0.70;;
10056;SDS011;5068;51.286;7.518;2023-03-14T01:24:24;1.88;;;0.70;;
10056;SDS011;5068;51.286;7.518;2023-03-14T01:25:57;2.58;;;0.60;;
10056;SDS011;5068;51.286;7.518;2023-03-14T01:27:31;2.70;;;0.50;;
10056;SDS011;5068;51.286;7.518;2023-03-14T01:29:05;1.77;;;0.60;;
10056;SDS011;5068;51.286;7.518;2023-03-14T01:30:42;2.25;;;0.65;;
10056;SDS011;5068;51.286;7.518;2023-03-14T01:32:16;2.65;;;0.50;;
10056;SDS011;5068;51.286;7.518;2023-03-14T01:33:49;1.85;;;0.50;;
10056;SDS011;5068;51.286;7.518;2023-03-14T01:35:23;2.85;;;0.70;;
10056;SDS011;5068;51.286;7.518;2023-03-14T01:36:58;2.45;;;0.73;;
10056;SDS011;5068;51.286;7.518;2023-03-14T01:38:32;4.53;;;1.00;;
10056;SDS011;5068;51.286;7.518;2023-03-14T01:40:10;1.52;;;0.30;;
10056;SDS011;5068;51.286;7.518;2023-03-14T01:41:47;1.52;;;0.30;;
10056;SDS011;5068;51.286;7.518;2023-03-14T01:43:21;0.70;;;0.20;;
10056;SDS011;5068;51.286;7.518;2023-03-14T01:44:57;1.20;;;0.40;;
10056;SDS011;5068;51.286;7.518;2023-03-14T01:46:37;1.70;;;0.35;;
10056;SDS011;5068;51.286;7.518;2023-03-14T01:48:11;0.25;;;0.17;;
10056;SDS011;5068;51.286;7.518;2023-03-14T01:49:45;0.85;;;0.20;;
10056;SDS011;5068;51.286;7.518;2023-03-14T01:51:23;2.33;;;0.30;;
10056;SDS011;5068;51.286;7.518;2023-03-14T01:53:04;0.68;;;0.20;;
10056;SDS011;5068;51.286;7.518;2023-03-14T01:54:39;1.27;;;0.30;;
10056;SDS011;5068;51.286;7.518;2023-03-14T01:56:15;2.30;;;0.20;;
10056;SDS011;5068;51.286;7.518;2023-03-14T01:57:50;1.42;;;0.20;;
10056;SDS011;5068;51.286;7.518;2023-03-14T01:59:29;2.15;;;0.20;;
10056;SDS011;5068;51.286;7.518;2023-03-14T02:01:06;2.97;;;0.35;;
10056;SDS011;5068;51.286;7.518;2023-03-14T02:02:43;0.75;;;0.28;;
10056;SDS011;5068;51.286;7.518;2023-03-14T02:04:23;1.52;;;0.38;;
10056;SDS011;5068;51.286;7.518;2023-03-14T02:06:06;2.08;;;0.38;;
10056;SDS011;5068;51.286;7.518;2023-03-14T02:07:44;0.30;;;0.15;;
10056;SDS011;5068;51.286;7.518;2023-03-14T02:09:26;1.25;;;0.20;;
10056;SDS011;5068;51.286;7.518;2023-03-14T02:11:01;1.23;;;0.10;;
10056;SDS011;5068;51.286;7.518;2023-03-14T02:12:59;0.55;;;0.13;;
10056;SDS011;5068;51.286;7.518;2023-03-14T02:14:54;0.52;;;0.10;;
10056;SDS011;5068;51.286;7.518;2023-03-14T02:16:34;0.85;;;0.20;;
10056;SDS011;5068;51.286;7.518;2023-03-14T02:18:37;1.92;;;0.20;;
10056;SDS011;5068;51.286;7.518;2023-03-14T02:20:31;1.17;;;0.35;;
10056;SDS011;5068;51.286;7.518;2023-03-14T02:22:15;0.82;;;0.10;;
10056;SDS011;5068;51.286;7.518;2023-03-14T02:24:04;1.05;;;0.20;;
10056;SDS011;5068;51.286;7.518;2023-03-14T02:25:54;2.30;;;0.30;;
10056;SDS011;5068;51.286;7.518;2023-03-14T02:27:39;3.03;;;0.30;;
10056;SDS011;5068;51.286;7.518;2023-03-14T02:29:13;0.50;;;0.10;;
10056;SDS011;5068;51.286;7.518;2023-03-14T02:30:46;1.38;;;0.47;;
10056;SDS011;5068;51.286;7.518;2023-03-14T02:32:20;2.00;;;0.30;;
10056;SDS011;5068;51.286;7.518;2023-03-14T02:33:57;1.55;;;0.30;;
10056;SDS011;5068;51.286;7.518;2023-03-14T02:35:35;2.25;;;0.20;;
10056;SDS011;5068;51.286;7.518;2023-03-14T02:37:13;0.90;;;0.20;;
10056;SDS011;5068;51.286;7.518;2023-03-14T02:38:50;1.00;;;0.30;;
10056;SDS011;5068;51.286;7.518;2023-03-14T02:40:34;1.55;;;0.15;;
10056;SDS011;5068;51.286;7.518;2023-03-14T02:42:07;2.60;;;0.30;;
10056;SDS011;5068;51.286;7.518;2023-03-14T02:43:42;1.17;;;0.30;;
10056;SDS011;5068;51.286;7.518;2023-03-14T02:45:30;1.52;;;0.20;;
10056;SDS011;5068;51.286;7.518;2023-03-14T02:47:10;1.77;;;0.32;;
10056;SDS011;5068;51.286;7.518;2023-03-14T02:48:44;1.73;;;0.20;;
10056;SDS011;5068;51.286;7.518;2023-03-14T02:50:22;0.80;;;0.10;;
10056;SDS011;5068;51.286;7.518;2023-03-14T02:52:00;3.50;;;0.68;;
10056;SDS011;5068;51.286;7.518;2023-03-14T02:53:34;0.75;;;0.22;;
10056;SDS011;5068;51.286;7.518;2023-03-14T02:55:14;1.13;;;0.13;;
10056;SDS011;5068;51.286;7.518;2023-03-14T02:56:52;1.17;;;0.20;;
10056;SDS011;5068;51.286;7.518;2023-03-14T02:58:26;1.55;;;0.15;;
10056;SDS011;5068;51.286;7.518;2023-03-14T03:00:10;1.52;;;0.10;;
10056;SDS011;5068;51.286;7.518;2023-03-14T03:01:44;1.25;;;0.20;;
10056;SDS011;5068;51.286;7.518;2023-03-14T03:03:17;1.38;;;0.30;;
10056;SDS011;5068;51.286;7.518;2023-03-14T03:04:52;1.08;;;0.20;;
10056;SDS011;5068;51.286;7.518;2023-03-14T03:06:26;1.88;;;0.20;;
10056;SDS011;5068;51.286;7.518;2023-03-14T03:07:59;1.20;;;0.40;;
10056;SDS011;5068;51.286;7.518;2023-03-14T03:09:31;1.50;;;0.32;;
10056;SDS011;5068;51.286;7.518;2023-03-14T03:11:05;2.10;;;0.32;;
10056;SDS011;5068;51.286;7.518;2023-03-14T03:12:39;0.63;;;0.20;;
10056;SDS011;5068;51.286;7.518;2023-03-14T03:14:11;1.27;;;0.20;;
10056;SDS011;5068;51.286;7.518;2023-03-14T03:15:46;1.63;;;0.28;;
10056;SDS011;5068;51.286;7.518;2023-03-14T03:17:19;2.80;;;0.52;;
10056;SDS011;5068;51.286;7.518;2023-03-14T03:18:51;1.83;;;0.50;;
10056;SDS011;5068;51.286;7.518;2023-03-14T03:20:25;1.10;;;0.30;;
10056;SDS011;5068;51.286;7.518;2023-03-14T03:21:58;1.60;;;0.20;;
10056;SDS011;5068;51.286;7.518;2023-03-14T03:23:31;2.90;;;0.77;;
10056;SDS011;5068;51.286;7.518;2023-03-14T03:25:05;1.83;;;0.40;;
10056;SDS011;5068;51.286;7.518;2023-03-14T03:26:40;2.58;;;0.32;;
10056;SDS011;5068;51.286;7.518;2023-03-14T03:28:15;3.80;;;0.85;;
10056;SDS011;5068;51.286;7.518;2023-03-14T03:29:48;3.08;;;0.75;;
10056;SDS011;5068;51.286;7.518;2023-03-14T03:31:22;1.42;;;0.25;;
10056;SDS011;5068;51.286;7.518;2023-03-14T03:32:56;1.92;;;0.40;;
10056;SDS011;5068;51.286;7.518;2023-03-14T03:34:28;0.70;;;0.30;;
10056;SDS011;5068;51.286;7.518;2023-03-14T03:36:01;3.13;;;0.50;;
10056;SDS011;5068;51.286;7.518;2023-03-14T03:37:38;1.23;;;0.40;;
10056;SDS011;5068;51.286;7.518;2023-03-14T03:39:11;1.73;;;0.30;;
10056;SDS011;5068;51.286;7.518;2023-03-14T03:40:44;1.63;;;0.30;;
10056;SDS011;5068;51.286;7.518;2023-03-14T03:42:18;2.70;;;0.60;;
10056;SDS011;5068;51.286;7.518;2023-03-14T03:43:51;3.80;;;0.45;;
10056;SDS011;5068;51.286;7.518;2023-03-14T03:45:25;0.52;;;0.30;;
10056;SDS011;5068;51.286;7.518;2023-03-14T03:47:01;1.55;;;0.30;;
10056;SDS011;5068;51.286;7.518;2023-03-14T03:50:10;2.40;;;0.40;;
10056;SDS011;5068;51.286;7.518;2023-03-14T03:51:43;1.60;;;0.40;;
10056;SDS011;5068;51.286;7.518;2023-03-14T03:53:16;2.15;;;0.30;;
10056;SDS011;5068;51.286;7.518;2023-03-14T03:55:04;1.67;;;0.40;;
10056;SDS011;5068;51.286;7.518;2023-03-14T03:56:38;1.20;;;0.30;;
10056;SDS011;5068;51.286;7.518;2023-03-14T03:58:11;1.30;;;0.30;;
10056;SDS011;5068;51.286;7.518;2023-03-14T03:59:44;1.83;;;0.20;;
10056;SDS011;5068;51.286;7.518;2023-03-14T04:01:17;1.25;;;0.20;;
10056;SDS011;5068;51.286;7.518;2023-03-14T04:02:55;1.48;;;0.20;;
10056;SDS011;5068;51.286;7.518;2023-03-14T04:04:29;1.90;;;0.40;;
10056;SDS011;5068;51.286;7.518;2023-03-14T04:06:07;3.28;;;0.75;;
10056;SDS011;5068;51.286;7.518;2023-03-14T04:07:44;1.33;;;0.30;;
10056;SDS011;5068;51.286;7.518;2023-03-14T04:09:21;1.38;;;0.50;;
10056;SDS011;5068;51.286;7.518;2023-03-14T04:11:23;0.90;;;0.32;;
10056;SDS011;5068;51.286;7.518;2023-03-14T04:13:10;1.73;;;0.43;;
10056;SDS011;5068;51.286;7.518;2023-03-14T04:14:45;1.83;;;0.43;;
10056;SDS011;5068;51.286;7.518;2023-03-14T04:16:24;2.70;;;0.47;;
10056;SDS011;5068;51.286;7.518;2023-03-14T04:18:07;0.98;;;0.30;;
10056;SDS011;5068;51.286;7.518;2023-03-14T04:19:40;1.85;;;0.30;;
10056;SDS011;5068;51.286;7.518;2023-03-14T04:21:14;2.55;;;0.45;;
10056;SDS011;5068;51.286;7.518;2023-03-14T04:22:53;3.00;;;0.50;;
10056;SDS011;5068;51.286;7.518;2023-03-14T04:24:26;2.97;;;0.50;;
10056;SDS011;5068;51.286;7.518;2023-03-14T04:26:00;1.10;;;0.20;;
10056;SDS011;5068;51.286;7.518;2023-03-14T04:27:36;2.58;;;0.55;;
10056;SDS011;5068;51.286;7.518;2023-03-14T04:29:15;2.28;;;0.60;;
10056;SDS011;5068;51.286;7.518;2023-03-14T04:32:26;3.05;;;0.50;;
10056;SDS011;5068;51.286;7.518;2023-03-14T04:34:02;1.42;;;0.30;;
10056;SDS011;5068;51.286;7.518;2023-03-14T04:35:40;2.40;;;0.60;;
10056;SDS011;5068;51.286;7.518;2023-03-14T04:37:16;2.03;;;0.65;;
10056;SDS011;5068;51.286;7.518;2023-03-14T04:38:49;3.42;;;0.43;;
10056;SDS011;5068;51.286;7.518;2023-03-14T04:40:24;4.95;;;0.60;;
10056;SDS011;5068;51.286;7.518;2023-03-14T04:42:03;3.03;;;0.73;;
10056;SDS011;5068;51.286;7.518;2023-03-14T04:43:37;3.03;;;0.63;;
10056;SDS011;5068;51.286;7.518;2023-03-14T04:45:12;2.47;;;0.50;;
10056;SDS011;5068;51.286;7.518;2023-03-14T04:46:46;2.50;;;0.40;;
10056;SDS011;5068;51.286;7.518;2023-03-14T04:48:20;4.78;;;0.50;;
10056;SDS011;5068;51.286;7.518;2023-03-14T04:49:55;2.83;;;0.50;;
10056;SDS011;5068;51.286;7.518;2023-03-14T04:51:29;2.55;;;0.60;;
10056;SDS011;5068;51.286;7.518;2023-03-14T04:53:02;3.22;;;0.50;;
10056;SDS011;5068;51.286;7.518;2023-03-14T04:54:36;2.35;;;0.55;;
10056;SDS011;5068;51.286;7.518;2023-03-14T04:56:09;3.00;;;0.70;;
10056;SDS011;5068;51.286;7.518;2023-03-14T04:57:46;1.17;;;0.30;;
10056;SDS011;5068;51.286;7.518;2023-03-14T04:59:19;3.70;;;0.60;;
10056;SDS011;5068;51.286;7.518;2023-03-14T05:00:54;4.13;;;0.70;;
10056;SDS011;5068;51.286;7.518;2023-03-14T05:02:45;2.50;;;0.63;;
10056;SDS011;5068;51.286;7.518;2023-03-14T05:04:28;3.35;;;0.50;;
10056;SDS011;5068;51.286;7.518;2023-03-14T05:06:24;3.00;;;0.70;;
10056;SDS011;5068;51.286;7.518;2023-03-14T05:08:12;2.05;;;0.38;;
10056;SDS011;5068;51.286;7.518;2023-03-14T05:11:56;2.20;;;0.43;;
10056;SDS011;5068;51.286;7.518;2023-03-14T05:13:48;2.58;;;0.45;;
10056;SDS011;5068;51.286;7.518;2023-03-14T05:15:35;4.95;;;0.50;;
10056;SDS011;5068;51.286;7.518;2023-03-14T05:17:19;2.25;;;0.50;;
10056;SDS011;5068;51.286;7.518;2023-03-14T05:19:08;5.25;;;0.52;;
10056;SDS011;5068;51.286;7.518;2023-03-14T05:20:54;4.10;;;0.65;;
10056;SDS011;5068;51.286;7.518;2023-03-14T05:22:51;3.90;;;0.40;;
10056;SDS011;5068;51.286;7.518;2023-03-14T05:26:42;3.85;;;0.50;;
10056;SDS011;5068;51.286;7.518;2023-03-14T05:28:34;1.42;;;0.55;;
10056;SDS011;5068;51.286;7.518;2023-03-14T05:30:16;2.45;;;0.57;;
10056;SDS011;5068;51.286;7.518;2023-03-14T05:32:09;3.47;;;1.05;;
10056;SDS011;5068;51.286;7.518;2023-03-14T05:34:00;2.42;;;0.40;;
10056;SDS011;5068;51.286;7.518;2023-03-14T05:35:46;2.33;;;0.40;;
10056;SDS011;5068;51.286;7.518;2023-03-14T05:37:38;0.93;;;0.30;;
10056;SDS011;5068;51.286;7.518;2023-03-14T05:39:21;2.60;;;0.60;;
10056;SDS011;5068;51.286;7.518;2023-03-14T05:41:17;2.38;;;0.50;;
10056;SDS011;5068;51.286;7.518;2023-03-14T05:43:19;1.75;;;0.50;;
10056;SDS011;5068;51.286;7.518;2023-03-14T05:45:07;3.22;;;0.45;;
10056;SDS011;5068;51.286;7.518;2023-03-14T05:47:03;2.53;;;0.57;;
10056;SDS011;5068;51.286;7.518;2023-03-14T05:48:55;1.50;;;0.35;;
10056;SDS011;5068;51.286;7.518;2023-03-14T05:50:54;2.30;;;0.63;;
10056;SDS011;5068;51.286;7.518;2023-03-14T05:52:39;2.03;;;0.40;;
10056;SDS011;5068;51.286;7.518;2023-03-14T05:54:42;1.00;;;0.20;;
10056;SDS011;5068;51.286;7.518;2023-03-14T05:56:41;1.75;;;0.50;;
10056;SDS011;5068;51.286;7.518;2023-03-14T05:58:14;1.40;;;0.40;;
10056;SDS011;5068;51.286;7.518;2023-03-14T06:00:14;1.05;;;0.30;;
10056;SDS011;5068;51.286;7.518;2023-03-14T06:02:00;2.22;;;0.38;;
10056;SDS011;5068;51.286;7.518;2023-03-14T06:03:41;1.60;;;0.38;;
10056;SDS011;5068;51.286;7.518;2023-03-14T06:05:15;2.50;;;0.47;;
10056;SDS011;5068;51.286;7.518;2023-03-14T06:06:49;2.47;;;0.80;;
10056;SDS011;5068;51.286;7.518;2023-03-14T06:08:22;1.55;;;0.60;;
10056;SDS011;5068;51.286;7.518;2023-03-14T06:09:57;1.58;;;0.40;;
10056;SDS011;5068;51.286;7.518;2023-03-14T06:11:30;3.13;;;0.63;;
10056;SDS011;5068;51.286;7.518;2023-03-14T06:13:04;2.25;;;0.75;;
10056;SDS011;5068;51.286;7.518;2023-03-14T06:14:38;3.33;;;0.30;;
10056;SDS011;5068;51.286;7.518;2023-03-14T06:16:12;1.73;;;0.30;;
10056;SDS011;5068;51.286;7.518;2023-03-14T06:17:45;1.00;;;0.40;;
10056;SDS011;5068;51.286;7.518;2023-03-14T06:20:53;1.50;;;0.30;;
10056;SDS011;5068;51.286;7.518;2023-03-14T06:22:30;4.93;;;0.73;;
10056;SDS011;5068;51.286;7.518;2023-03-14T06:24:03;0.70;;;0.30;;
10056;SDS011;5068;51.286;7.518;2023-03-14T06:25:45;1.42;;;0.40;;
10056;SDS011;5068;51.286;7.518;2023-03-14T06:27:18;1.00;;;0.40;;
10056;SDS011;5068;51.286;7.518;2023-03-14T06:28:55;1.38;;;0.38;;
10056;SDS011;5068;51.286;7.518;2023-03-14T06:30:32;0.93;;;0.25;;
10056;SDS011;5068;51.286;7.518;2023-03-14T06:32:06;2.08;;;0.30;;
10056;SDS011;5068;51.286;7.518;2023-03-14T06:35:14;1.00;;;0.30;;
10056;SDS011;5068;51.286;7.518;2023-03-14T06:36:48;0.90;;;0.20;;
10056;SDS011;5068;51.286;7.518;2023-03-14T06:38:21;1.73;;;0.22;;
10056;SDS011;5068;51.286;7.518;2023-03-14T06:39:58;0.77;;;0.40;;
10056;SDS011;5068;51.286;7.518;2023-03-14T06:41:50;0.82;;;0.28;;
10056;SDS011;5068;51.286;7.518;2023-03-14T06:43:24;1.60;;;0.22;;
10056;SDS011;5068;51.286;7.518;2023-03-14T06:44:57;0.32;;;0.20;;
10056;SDS011;5068;51.286;7.518;2023-03-14T06:46:30;0.90;;;0.03;;
10056;SDS011;5068;51.286;7.518;2023-03-14T06:48:05;0.45;;;0.20;;
10056;SDS011;5068;51.286;7.518;2023-03-14T06:49:43;0.13;;;0.10;;
10056;SDS011;5068;51.286;7.518;2023-03-14T06:51:17;0.75;;;0.20;;
10056;SDS011;5068;51.286;7.518;2023-03-14T06:52:51;1.15;;;0.22;;
10056;SDS011;5068;51.286;7.518;2023-03-14T06:54:28;1.25;;;0.20;;
10056;SDS011;5068;51.286;7.518;2023-03-14T06:56:02;1.00;;;0.10;;
10056;SDS011;5068;51.286;7.518;2023-03-14T06:57:38;0.35;;;0.10;;
10056;SDS011;5068;51.286;7.518;2023-03-14T06:59:11;0.70;;;0.17;;
10056;SDS011;5068;51.286;7.518;2023-03-14T07:00:45;0.28;;;0.00;;
10056;SDS011;5068;51.286;7.518;2023-03-14T07:02:24;0.15;;;0.10;;
10056;SDS011;5068;51.286;7.518;2023-03-14T07:04:22;0.10;;;0.10;;
10056;SDS011;5068;51.286;7.518;2023-03-14T07:05:56;0.93;;;0.10;;
10056;SDS011;5068;51.286;7.518;2023-03-14T07:07:29;0.60;;;0.10;;
10056;SDS011;5068;51.286;7.518;2023-03-14T07:09:03;0.60;;;0.10;;
10056;SDS011;5068;51.286;7.518;2023-03-14T07:10:38;0.38;;;0.10;;
10056;SDS011;5068;51.286;7.518;2023-03-14T07:12:12;1.70;;;0.20;;
10056;SDS011;5068;51.286;7.518;2023-03-14T07:13:46;0.82;;;0.10;;
10056;SDS011;5068;51.286;7.518;2023-03-14T07:15:20;0.90;;;0.20;;
10056;SDS011;5068;51.286;7.518;2023-03-14T07:16:57;0.93;;;0.10;;
10056;SDS011;5068;51.286;7.518;2023-03-14T07:18:30;0.20;;;0.10;;
10056;SDS011;5068;51.286;7.518;2023-03-14T07:20:07;0.88;;;0.10;;
10056;SDS011;5068;51.286;7.518;2023-03-14T07:21:42;0.65;;;0.10;;
10056;SDS011;5068;51.286;7.518;2023-03-14T07:23:17;0.28;;;0.03;;
10056;SDS011;5068;51.286;7.518;2023-03-14T07:24:53;1.00;;;0.10;;
10056;SDS011;5068;51.286;7.518;2023-03-14T07:26:28;0.28;;;0.05;;
10056;SDS011;5068;51.286;7.518;2023-03-14T07:28:01;0.60;;;0.20;;
10056;SDS011;5068;51.286;7.518;2023-03-14T07:29:35;0.40;;;0.20;;
10056;SDS011;5068;51.286;7.518;2023-03-14T07:31:09;0.32;;;0.10;;
10056;SDS011;5068;51.286;7.518;2023-03-14T07:32:43;0.47;;;0.10;;
10056;SDS011;5068;51.286;7.518;2023-03-14T07:34:17;0.10;;;0.10;;
10056;SDS011;5068;51.286;7.518;2023-03-14T07:35:51;0.60;;;0.30;;
10056;SDS011;5068;51.286;7.518;2023-03-14T07:37:24;0.93;;;0.10;;
10056;SDS011;5068;51.286;7.518;2023-03-14T07:38:57;0.65;;;0.20;;
10056;SDS011;5068;51.286;7.518;2023-03-14T07:40:39;0.45;;;0.17;;
10056;SDS011;5068;51.286;7.518;2023-03-14T07:42:13;0.63;;;0.25;;
10056;SDS011;5068;51.286;7.518;2023-03-14T07:43:46;1.33;;;0.40;;
10056;SDS011;5068;51.286;7.518;2023-03-14T07:45:21;0.95;;;0.20;;
10056;SDS011;5068;51.286;7.518;2023-03-14T07:46:55;0.60;;;0.20;;
10056;SDS011;5068;51.286;7.518;2023-03-14T07:48:28;0.90;;;0.30;;
10056;SDS011;5068;51.286;7.518;2023-03-14T07:50:02;0.65;;;0.28;;
10056;SDS011;5068;51.286;7.518;2023-03-14T07:51:36;0.93;;;0.20;;
10056;SDS011;5068;51.286;7.518;2023-03-14T07:53:09;0.70;;;0.30;;
10056;SDS011;5068;51.286;7.518;2023-03-14T07:54:42;0.40;;;0.17;;
10056;SDS011;5068;51.286;7.518;2023-03-14T07:56:16;0.30;;;0.10;;
10056;SDS011;5068;51.286;7.518;2023-03-14T07:57:49;0.20;;;0.00;;
10056;SDS011;5068;51.286;7.518;2023-03-14T07:59:23;0.43;;;0.10;;
10056;SDS011;5068;51.286;7.518;2023-03-14T08:00:58;0.13;;;0.08;;
10056;SDS011;5068;51.286;7.518;2023-03-14T08:02:31;0.20;;;0.10;;
10056;SDS011;5068;51.286;7.518;2023-03-14T08:04:04;0.60;;;0.10;;
10056;SDS011;5068;51.286;7.518;2023-03-14T08:05:38;0.40;;;0.10;;
10056;SDS011;5068;51.286;7.518;2023-03-14T08:07:12;0.25;;;0.10;;
10056;SDS011;5068;51.286;7.518;2023-03-14T08:08:45;0.80;;;0.10;;
10056;SDS011;5068;51.286;7.518;2023-03-14T08:10:18;0.00;;;0.00;;
10056;SDS011;5068;51.286;7.518;2023-03-14T08:11:55;0.20;;;0.10;;
10056;SDS011;5068;51.286;7.518;2023-03-14T08:13:29;0.45;;;0.10;;
10056;SDS011;5068;51.286;7.518;2023-03-14T08:15:02;0.13;;;0.05;;
10056;SDS011;5068;51.286;7.518;2023-03-14T08:16:37;0.50;;;0.10;;
10056;SDS011;5068;51.286;7.518;2023-03-14T08:18:11;0.10;;;0.03;;
10056;SDS011;5068;51.286;7.518;2023-03-14T08:19:44;0.52;;;0.00;;
10056;SDS011;5068;51.286;7.518;2023-03-14T08:21:17;1.02;;;0.20;;
10056;SDS011;5068;51.286;7.518;2023-03-14T08:22:50;0.30;;;0.20;;
10056;SDS011;5068;51.286;7.518;2023-03-14T08:24:24;0.22;;;0.20;;
10056;SDS011;5068;51.286;7.518;2023-03-14T08:25:57;1.02;;;0.20;;
10056;SDS011;5068;51.286;7.518;2023-03-14T08:27:31;0.30;;;0.10;;
10056;SDS011;5068;51.286;7.518;2023-03-14T08:29:04;0.43;;;0.10;;
10056;SDS011;5068;51.286;7.518;2023-03-14T08:30:38;0.55;;;0.20;;
10056;SDS011;5068;51.286;7.518;2023-03-14T08:32:15;0.50;;;0.13;;
10056;SDS011;5068;51.286;7.518;2023-03-14T08:33:49;0.70;;;0.20;;
10056;SDS011;5068;51.286;7.518;2023-03-14T08:35:23;0.40;;;0.20;;
10056;SDS011;5068;51.286;7.518;2023-03-14T08:36:57;0.30;;;0.20;;
10056;SDS011;5068;51.286;7.518;2023-03-14T08:38:31;0.30;;;0.10;;
10056;SDS011;5068;51.286;7.518;2023-03-14T08:40:05;0.82;;;0.20;;
10056;SDS011;5068;51.286;7.518;2023-03-14T08:41:41;0.60;;;0.10;;
10056;SDS011;5068;51.286;7.518;2023-03-14T08:43:16;0.35;;;0.20;;
10056;SDS011;5068;51.286;7.518;2023-03-14T08:44:49;1.60;;;0.45;;
10056;SDS011;5068;51.286;7.518;2023-03-14T08:46:23;0.73;;;0.10;;
10056;SDS011;5068;51.286;7.518;2023-03-14T08:47:58;0.30;;;0.08;;
10056;SDS011;5068;51.286;7.518;2023-03-14T08:49:31;1.05;;;0.15;;
10056;SDS011;5068;51.286;7.518;2023-03-14T08:51:05;0.47;;;0.20;;
10056;SDS011;5068;51.286;7.518;2023-03-14T08:52:39;0.60;;;0.20;;
10056;SDS011;5068;51.286;7.518;2023-03-14T08:54:13;0.73;;;0.22;;
10056;SDS011;5068;51.286;7.518;2023-03-14T08:55:46;1.63;;;0.17;;
10056;SDS011;5068;51.286;7.518;2023-03-14T08:57:20;1.35;;;0.22;;
10056;SDS011;5068;51.286;7.518;2023-03-14T08:58:58;0.50;;;0.30;;
10056;SDS011;5068;51.286;7.518;2023-03-14T09:00:31;0.40;;;0.10;;
10056;SDS011;5068;51.286;7.518;2023-03-14T09:02:05;0.65;;;0.15;;
10056;SDS011;5068;51.286;7.518;2023-03-14T09:03:40;0.22;;;0.10;;
10056;SDS011;5068;51.286;7.518;2023-03-14T09:05:13;0.47;;;0.20;;
10056;SDS011;5068;51.286;7.518;2023-03-14T09:06:46;0.38;;;0.10;;
10056;SDS011;5068;51.286;7.518;2023-03-14T09:08:19;0.35;;;0.10;;
10056;SDS011;5068;51.286;7.518;2023-03-14T09:09:52;0.47;;;0.10;;
10056;SDS011;5068;51.286;7.518;2023-03-14T09:11:25;0.70;;;0.20;;
10056;SDS011;5068;51.286;7.518;2023-03-14T09:12:59;0.30;;;0.20;;
10056;SDS011;5068;51.286;7.518;2023-03-14T09:14:32;0.60;;;0.10;;
10056;SDS011;5068;51.286;7.518;2023-03-14T09:16:06;0.43;;;0.20;;
10056;SDS011;5068;51.286;7.518;2023-03-14T09:17:42;0.50;;;0.25;;
10056;SDS011;5068;51.286;7.518;2023-03-14T09:19:17;0.50;;;0.22;;
10056;SDS011;5068;51.286;7.518;2023-03-14T09:20:50;0.52;;;0.30;;
10056;SDS011;5068;51.286;7.518;2023-03-14T09:22:23;0.40;;;0.20;;
10056;SDS011;5068;51.286;7.518;2023-03-14T09:23:57;0.50;;;0.20;;
10056;SDS011;5068;51.286;7.518;2023-03-14T09:25:30;0.30;;;0.20;;
10056;SDS011;5068;51.286;7.518;2023-03-14T09:27:03;0.50;;;0.20;;
10056;SDS011;5068;51.286;7.518;2023-03-14T09:28:36;0.68;;;0.43;;
10056;SDS011;5068;51.286;7.518;2023-03-14T09:30:10;0.60;;;0.30;;
10056;SDS011;5068;51.286;7.518;2023-03-14T09:31:44;0.82;;;0.38;;
10056;SDS011;5068;51.286;7.518;2023-03-14T09:33:17;0.82;;;0.30;;
10056;SDS011;5068;51.286;7.518;2023-03-14T09:34:52;0.55;;;0.28;;
10056;SDS011;5068;51.286;7.518;2023-03-14T09:36:25;0.50;;;0.20;;
10056;SDS011;5068;51.286;7.518;2023-03-14T09:37:59;0.55;;;0.40;;
10056;SDS011;5068;51.286;7.518;2023-03-14T09:39:32;0.75;;;0.32;;
10056;SDS011;5068;51.286;7.518;2023-03-14T09:41:11;1.25;;;0.30;;
10056;SDS011;5068;51.286;7.518;2023-03-14T09:42:50;0.80;;;0.30;;
10056;SDS011;5068;51.286;7.518;2023-03-14T09:44:27;0.50;;;0.30;;
10056;SDS011;5068;51.286;7.518;2023-03-14T09:46:04;0.75;;;0.55;;
10056;SDS011;5068;51.286;7.518;2023-03-14T09:47:40;0.52;;;0.30;;
10056;SDS011;5068;51.286;7.518;2023-03-14T09:49:30;0.73;;;0.60;;
10056;SDS011;5068;51.286;7.518;2023-03-14T09:51:11;0.50;;;0.30;;
10056;SDS011;5068;51.286;7.518;2023-03-14T09:52:49;0.70;;;0.40;;
10056;SDS011;5068;51.286;7.518;2023-03-14T09:54:32;0.43;;;0.30;;
10056;SDS011;5068;51.286;7.518;2023-03-14T09:56:11;0.45;;;0.30;;
10056;SDS011;5068;51.286;7.518;2023-03-14T09:57:49;0.70;;;0.20;;
10056;SDS011;5068;51.286;7.518;2023-03-14T09:59:29;1.02;;;0.35;;
10056;SDS011;5068;51.286;7.518;2023-03-14T10:01:02;1.00;;;0.30;;
10056;SDS011;5068;51.286;7.518;2023-03-14T10:02:36;0.90;;;0.30;;